Chaska, Minnesota
Current Conditions -  °F | °C
As of 7:53 AM on Monday 24 Nov 2014 (Local Time) from KFCM Reporting Station
Overcast Overcast  
Wind Chill: 11°   Ceiling: 1500
Heat Index: 23°   Visibility: 10mi
Dew Point: 18°   Wind: 14mph
Humidity: 81%   Direction: 300°WNW
Pressure: 29.39"   Gusts: 25mph
Location:  44.79°N, 93.6°W
Report Text: KFCM 241353Z 30012G22KT 10SM OVC015 M05/M08 A2939 RMK AO2 PK WND 31027/1301 SLP960 T10501078
Loading
Personal Weather Stations






























Interactive Weather Map New forecast layout! Learn more

10-Day Weather Forecast

Advertisements
Track Severe Weather on mobile